Vail Homes, New Jersey
Current Conditions -  °F | °C
As of 6:35 PM on Wednesday 22 Oct 2014 (Local Time) from KBLM Reporting Station
Overcast Overcast  
Wind Chill: 52°   Ceiling: 1900
Heat Index: 52°   Visibility: 10mi
Dew Point: 46°   Wind: 21mph
Humidity: 82%   Direction: 350°N
Pressure: 29.78"   Gusts: 29mph
Location:  40.2996°N, 74.074°W
Report Text: KBLM 222235Z AUTO 35018G25KT 10SM FEW009 OVC019 11/08 A2978 RMK AO1 P0005
Loading
Personal Weather Stations






























Interactive Weather Map
Tropical Storm Tracking
New forecast layout! Learn more

10-Day Weather Forecast

Advertisements
Track Severe Weather on mobile